sensor_id;sensor_type;location;lat;lon;timestamp;temperature;humidity
28823;DHT22;15961;54.678;9.110;2023-05-10T00:00:07;13.70;99.90
28823;DHT22;15961;54.678;9.110;2023-05-10T00:02:34;13.80;99.90
28823;DHT22;15961;54.678;9.110;2023-05-10T00:05:00;13.70;99.90
28823;DHT22;15961;54.678;9.110;2023-05-10T00:07:26;13.80;99.90
28823;DHT22;15961;54.678;9.110;2023-05-10T00:09:51;13.90;99.90
28823;DHT22;15961;54.678;9.110;2023-05-10T00:12:17;13.90;99.90
28823;DHT22;15961;54.678;9.110;2023-05-10T00:14:42;13.80;99.90
28823;DHT22;15961;54.678;9.110;2023-05-10T00:17:08;13.90;99.90
28823;DHT22;15961;54.678;9.110;2023-05-10T00:19:33;13.90;99.90
28823;DHT22;15961;54.678;9.110;2023-05-10T00:21:59;13.90;99.90
28823;DHT22;15961;54.678;9.110;2023-05-10T00:24:24;13.90;99.90
28823;DHT22;15961;54.678;9.110;2023-05-10T00:26:50;13.80;99.90
28823;DHT22;15961;54.678;9.110;2023-05-10T00:29:15;13.80;99.90
28823;DHT22;15961;54.678;9.110;2023-05-10T00:31:41;13.80;99.90
28823;DHT22;15961;54.678;9.110;2023-05-10T00:34:06;13.80;99.90
28823;DHT22;15961;54.678;9.110;2023-05-10T00:36:32;13.90;99.90
28823;DHT22;15961;54.678;9.110;2023-05-10T00:38:58;13.80;99.90
28823;DHT22;15961;54.678;9.110;2023-05-10T00:41:23;13.80;99.90
28823;DHT22;15961;54.678;9.110;2023-05-10T00:43:49;13.80;99.90
28823;DHT22;15961;54.678;9.110;2023-05-10T00:46:15;13.80;99.90
28823;DHT22;15961;54.678;9.110;2023-05-10T00:48:42;13.80;99.90
28823;DHT22;15961;54.678;9.110;2023-05-10T00:51:08;13.80;99.90
28823;DHT22;15961;54.678;9.110;2023-05-10T00:53:34;13.70;99.90
28823;DHT22;15961;54.678;9.110;2023-05-10T00:56:00;13.70;99.90
28823;DHT22;15961;54.678;9.110;2023-05-10T00:58:27;13.70;99.90
28823;DHT22;15961;54.678;9.110;2023-05-10T01:00:54;13.60;99.90
28823;DHT22;15961;54.678;9.110;2023-05-10T01:03:20;13.70;99.90
28823;DHT22;15961;54.678;9.110;2023-05-10T01:05:46;13.70;99.90
28823;DHT22;15961;54.678;9.110;2023-05-10T01:08:12;13.60;99.90
28823;DHT22;15961;54.678;9.110;2023-05-10T01:10:37;13.60;99.90
28823;DHT22;15961;54.678;9.110;2023-05-10T01:13:03;13.60;99.90
28823;DHT22;15961;54.678;9.110;2023-05-10T01:15:29;13.60;99.90
28823;DHT22;15961;54.678;9.110;2023-05-10T01:17:56;13.50;99.90
28823;DHT22;15961;54.678;9.110;2023-05-10T01:20:22;13.50;99.90
28823;DHT22;15961;54.678;9.110;2023-05-10T01:34:12;13.30;99.90
28823;DHT22;15961;54.678;9.110;2023-05-10T01:39:32;13.20;99.90
28823;DHT22;15961;54.678;9.110;2023-05-10T01:42:08;13.10;99.90
28823;DHT22;15961;54.678;9.110;2023-05-10T01:44:40;13.10;99.90
28823;DHT22;15961;54.678;9.110;2023-05-10T01:47:12;13.00;99.90
28823;DHT22;15961;54.678;9.110;2023-05-10T01:49:47;13.00;99.90
28823;DHT22;15961;54.678;9.110;2023-05-10T01:52:16;12.90;99.90
28823;DHT22;15961;54.678;9.110;2023-05-10T01:54:55;12.90;99.90
28823;DHT22;15961;54.678;9.110;2023-05-10T01:57:26;12.80;99.90
28823;DHT22;15961;54.678;9.110;2023-05-10T01:59:53;12.70;99.90
28823;DHT22;15961;54.678;9.110;2023-05-10T02:02:21;12.60;99.90
28823;DHT22;15961;54.678;9.110;2023-05-10T02:04:49;12.50;99.90
28823;DHT22;15961;54.678;9.110;2023-05-10T02:07:16;12.40;99.90
28823;DHT22;15961;54.678;9.110;2023-05-10T02:09:44;12.30;99.90
28823;DHT22;15961;54.678;9.110;2023-05-10T02:12:13;12.20;99.90
28823;DHT22;15961;54.678;9.110;2023-05-10T02:14:39;12.10;99.90
28823;DHT22;15961;54.678;9.110;2023-05-10T02:17:07;12.10;99.90
28823;DHT22;15961;54.678;9.110;2023-05-10T02:19:34;12.20;99.90
28823;DHT22;15961;54.678;9.110;2023-05-10T02:22:01;12.20;99.90
28823;DHT22;15961;54.678;9.110;2023-05-10T02:24:28;12.30;99.90
28823;DHT22;15961;54.678;9.110;2023-05-10T02:26:55;12.30;99.90
28823;DHT22;15961;54.678;9.110;2023-05-10T02:29:23;12.40;99.90
28823;DHT22;15961;54.678;9.110;2023-05-10T02:31:51;12.40;99.90
28823;DHT22;15961;54.678;9.110;2023-05-10T02:34:17;12.50;99.90
28823;DHT22;15961;54.678;9.110;2023-05-10T02:36:44;12.60;99.90
28823;DHT22;15961;54.678;9.110;2023-05-10T02:39:11;12.50;99.90
28823;DHT22;15961;54.678;9.110;2023-05-10T02:41:40;12.60;99.90
28823;DHT22;15961;54.678;9.110;2023-05-10T02:44:07;12.60;99.90
28823;DHT22;15961;54.678;9.110;2023-05-10T02:46:33;12.70;99.90
28823;DHT22;15961;54.678;9.110;2023-05-10T02:48:59;12.70;99.90
28823;DHT22;15961;54.678;9.110;2023-05-10T02:51:28;12.70;99.90
28823;DHT22;15961;54.678;9.110;2023-05-10T02:53:57;12.70;99.90
28823;DHT22;15961;54.678;9.110;2023-05-10T02:56:36;12.70;99.90
28823;DHT22;15961;54.678;9.110;2023-05-10T02:59:01;12.70;99.90
28823;DHT22;15961;54.678;9.110;2023-05-10T03:01:27;12.70;99.90
28823;DHT22;15961;54.678;9.110;2023-05-10T03:03:53;12.70;99.90
28823;DHT22;15961;54.678;9.110;2023-05-10T03:06:18;12.70;99.90
28823;DHT22;15961;54.678;9.110;2023-05-10T03:08:45;12.70;99.90
28823;DHT22;15961;54.678;9.110;2023-05-10T03:11:21;12.70;99.90
28823;DHT22;15961;54.678;9.110;2023-05-10T03:14:02;12.70;99.90
28823;DHT22;15961;54.678;9.110;2023-05-10T03:19:34;12.70;99.90
28823;DHT22;15961;54.678;9.110;2023-05-10T03:22:06;12.70;99.90
28823;DHT22;15961;54.678;9.110;2023-05-10T03:24:34;12.70;99.90
28823;DHT22;15961;54.678;9.110;2023-05-10T03:27:01;12.60;99.90
28823;DHT22;15961;54.678;9.110;2023-05-10T03:29:29;12.60;99.90
28823;DHT22;15961;54.678;9.110;2023-05-10T03:31:58;12.50;99.90
28823;DHT22;15961;54.678;9.110;2023-05-10T03:34:25;12.50;99.90
28823;DHT22;15961;54.678;9.110;2023-05-10T03:36:51;12.50;99.90
28823;DHT22;15961;54.678;9.110;2023-05-10T03:39:16;12.40;99.90
28823;DHT22;15961;54.678;9.110;2023-05-10T03:41:42;12.30;99.90
28823;DHT22;15961;54.678;9.110;2023-05-10T03:44:07;12.30;99.90
28823;DHT22;15961;54.678;9.110;2023-05-10T03:46:33;12.20;99.90
28823;DHT22;15961;54.678;9.110;2023-05-10T03:48:58;12.10;99.90
28823;DHT22;15961;54.678;9.110;2023-05-10T03:51:24;12.10;99.90
28823;DHT22;15961;54.678;9.110;2023-05-10T03:53:53;12.00;99.90
28823;DHT22;15961;54.678;9.110;2023-05-10T03:56:19;12.00;99.90
28823;DHT22;15961;54.678;9.110;2023-05-10T03:58:46;12.00;99.90
28823;DHT22;15961;54.678;9.110;2023-05-10T04:01:11;12.10;99.90
28823;DHT22;15961;54.678;9.110;2023-05-10T04:03:37;12.10;99.90
28823;DHT22;15961;54.678;9.110;2023-05-10T04:06:03;12.10;99.90
28823;DHT22;15961;54.678;9.110;2023-05-10T04:08:29;12.10;99.90
28823;DHT22;15961;54.678;9.110;2023-05-10T04:11:04;12.10;99.90
28823;DHT22;15961;54.678;9.110;2023-05-10T04:13:29;12.10;99.90
28823;DHT22;15961;54.678;9.110;2023-05-10T04:15:55;12.10;99.90
28823;DHT22;15961;54.678;9.110;2023-05-10T04:18:20;12.10;99.90
28823;DHT22;15961;54.678;9.110;2023-05-10T04:20:46;12.10;99.90
28823;DHT22;15961;54.678;9.110;2023-05-10T04:23:11;12.10;99.90
28823;DHT22;15961;54.678;9.110;2023-05-10T04:25:37;12.10;99.90
28823;DHT22;15961;54.678;9.110;2023-05-10T04:28:03;12.10;99.90
28823;DHT22;15961;54.678;9.110;2023-05-10T04:30:29;12.10;99.90
28823;DHT22;15961;54.678;9.110;2023-05-10T04:32:54;12.10;99.90
28823;DHT22;15961;54.678;9.110;2023-05-10T04:35:20;12.10;99.90
28823;DHT22;15961;54.678;9.110;2023-05-10T04:37:46;12.20;99.90
28823;DHT22;15961;54.678;9.110;2023-05-10T04:40:12;12.20;99.90
28823;DHT22;15961;54.678;9.110;2023-05-10T04:42:40;12.20;99.90
28823;DHT22;15961;54.678;9.110;2023-05-10T04:45:06;12.20;99.90
28823;DHT22;15961;54.678;9.110;2023-05-10T04:47:32;12.30;99.90
28823;DHT22;15961;54.678;9.110;2023-05-10T04:49:58;12.30;99.90
28823;DHT22;15961;54.678;9.110;2023-05-10T04:52:24;12.40;99.90
28823;DHT22;15961;54.678;9.110;2023-05-10T04:54:49;12.40;99.90
28823;DHT22;15961;54.678;9.110;2023-05-10T04:57:16;12.40;99.90
28823;DHT22;15961;54.678;9.110;2023-05-10T04:59:41;12.40;99.90
28823;DHT22;15961;54.678;9.110;2023-05-10T05:02:07;12.50;99.90
28823;DHT22;15961;54.678;9.110;2023-05-10T05:04:33;12.50;99.90
28823;DHT22;15961;54.678;9.110;2023-05-10T05:06:59;12.60;99.90
28823;DHT22;15961;54.678;9.110;2023-05-10T05:09:24;12.60;99.90
28823;DHT22;15961;54.678;9.110;2023-05-10T05:11:50;12.70;99.90
28823;DHT22;15961;54.678;9.110;2023-05-10T05:14:15;12.70;99.90
28823;DHT22;15961;54.678;9.110;2023-05-10T05:16:41;12.80;99.90
28823;DHT22;15961;54.678;9.110;2023-05-10T05:19:06;12.90;99.90
28823;DHT22;15961;54.678;9.110;2023-05-10T05:21:32;12.90;99.90
28823;DHT22;15961;54.678;9.110;2023-05-10T05:23:58;13.00;99.90
28823;DHT22;15961;54.678;9.110;2023-05-10T05:26:23;13.10;99.90
28823;DHT22;15961;54.678;9.110;2023-05-10T05:28:49;13.10;99.90
28823;DHT22;15961;54.678;9.110;2023-05-10T05:31:17;13.20;99.90
28823;DHT22;15961;54.678;9.110;2023-05-10T05:33:43;13.20;99.90
28823;DHT22;15961;54.678;9.110;2023-05-10T05:36:09;13.20;99.90
28823;DHT22;15961;54.678;9.110;2023-05-10T05:38:34;13.20;99.90
28823;DHT22;15961;54.678;9.110;2023-05-10T05:41:00;13.20;99.90
28823;DHT22;15961;54.678;9.110;2023-05-10T05:43:26;13.20;99.90
28823;DHT22;15961;54.678;9.110;2023-05-10T05:45:54;13.30;99.90
28823;DHT22;15961;54.678;9.110;2023-05-10T05:48:20;13.30;99.90
28823;DHT22;15961;54.678;9.110;2023-05-10T05:50:46;13.30;99.90
28823;DHT22;15961;54.678;9.110;2023-05-10T05:53:11;13.30;99.90
28823;DHT22;15961;54.678;9.110;2023-05-10T05:55:37;13.40;99.90
28823;DHT22;15961;54.678;9.110;2023-05-10T05:58:03;13.30;99.90
28823;DHT22;15961;54.678;9.110;2023-05-10T06:00:31;13.40;99.90
28823;DHT22;15961;54.678;9.110;2023-05-10T06:03:00;13.40;99.90
28823;DHT22;15961;54.678;9.110;2023-05-10T06:05:25;13.40;99.90
28823;DHT22;15961;54.678;9.110;2023-05-10T06:07:51;13.30;99.90
28823;DHT22;15961;54.678;9.110;2023-05-10T06:10:16;13.30;99.90
28823;DHT22;15961;54.678;9.110;2023-05-10T06:12:42;13.30;99.90
28823;DHT22;15961;54.678;9.110;2023-05-10T06:15:08;13.30;99.90
28823;DHT22;15961;54.678;9.110;2023-05-10T06:17:34;13.40;99.90
28823;DHT22;15961;54.678;9.110;2023-05-10T06:19:59;13.40;99.90
28823;DHT22;15961;54.678;9.110;2023-05-10T06:22:25;13.50;99.90
28823;DHT22;15961;54.678;9.110;2023-05-10T06:24:50;13.50;99.90
28823;DHT22;15961;54.678;9.110;2023-05-10T06:27:16;13.60;99.90
28823;DHT22;15961;54.678;9.110;2023-05-10T06:29:42;13.60;99.90
28823;DHT22;15961;54.678;9.110;2023-05-10T06:32:07;13.60;99.90
28823;DHT22;15961;54.678;9.110;2023-05-10T06:34:33;13.80;99.90
28823;DHT22;15961;54.678;9.110;2023-05-10T06:36:58;13.80;99.90
28823;DHT22;15961;54.678;9.110;2023-05-10T06:39:24;13.80;99.90
28823;DHT22;15961;54.678;9.110;2023-05-10T06:41:49;13.90;99.90
28823;DHT22;15961;54.678;9.110;2023-05-10T06:44:15;14.10;99.90
28823;DHT22;15961;54.678;9.110;2023-05-10T06:46:41;14.10;99.90
28823;DHT22;15961;54.678;9.110;2023-05-10T06:49:07;14.20;99.90
28823;DHT22;15961;54.678;9.110;2023-05-10T06:51:32;14.20;99.90
28823;DHT22;15961;54.678;9.110;2023-05-10T06:53:58;14.20;99.90
28823;DHT22;15961;54.678;9.110;2023-05-10T06:56:23;14.30;99.90
28823;DHT22;15961;54.678;9.110;2023-05-10T06:58:49;14.30;99.90
28823;DHT22;15961;54.678;9.110;2023-05-10T07:01:14;14.60;99.90
28823;DHT22;15961;54.678;9.110;2023-05-10T07:03:40;14.70;99.90
28823;DHT22;15961;54.678;9.110;2023-05-10T07:06:05;14.70;99.90
28823;DHT22;15961;54.678;9.110;2023-05-10T07:08:33;14.80;99.90
28823;DHT22;15961;54.678;9.110;2023-05-10T07:11:03;14.90;99.90
28823;DHT22;15961;54.678;9.110;2023-05-10T07:13:30;15.00;99.90
28823;DHT22;15961;54.678;9.110;2023-05-10T07:15:56;15.20;99.90
28823;DHT22;15961;54.678;9.110;2023-05-10T07:18:22;15.20;99.90
28823;DHT22;15961;54.678;9.110;2023-05-10T07:20:48;15.20;99.90
28823;DHT22;15961;54.678;9.110;2023-05-10T07:23:14;15.30;99.90
28823;DHT22;15961;54.678;9.110;2023-05-10T07:25:39;15.40;99.90
28823;DHT22;15961;54.678;9.110;2023-05-10T07:28:05;15.50;99.90
28823;DHT22;15961;54.678;9.110;2023-05-10T07:30:31;15.50;99.90
28823;DHT22;15961;54.678;9.110;2023-05-10T07:32:56;15.40;99.90
28823;DHT22;15961;54.678;9.110;2023-05-10T07:35:22;15.50;99.90
28823;DHT22;15961;54.678;9.110;2023-05-10T07:37:47;15.60;99.90
28823;DHT22;15961;54.678;9.110;2023-05-10T07:40:13;15.60;99.90
28823;DHT22;15961;54.678;9.110;2023-05-10T07:42:38;15.60;99.90
28823;DHT22;15961;54.678;9.110;2023-05-10T07:45:04;15.70;99.90
28823;DHT22;15961;54.678;9.110;2023-05-10T07:47:30;15.80;99.90
28823;DHT22;15961;54.678;9.110;2023-05-10T07:49:55;15.70;99.90
28823;DHT22;15961;54.678;9.110;2023-05-10T07:52:21;15.90;99.90
28823;DHT22;15961;54.678;9.110;2023-05-10T07:54:46;16.00;99.90
28823;DHT22;15961;54.678;9.110;2023-05-10T07:57:12;16.00;99.90
28823;DHT22;15961;54.678;9.110;2023-05-10T07:59:39;16.10;99.90
28823;DHT22;15961;54.678;9.110;2023-05-10T08:02:06;16.20;99.90
28823;DHT22;15961;54.678;9.110;2023-05-10T08:04:31;16.40;99.90
28823;DHT22;15961;54.678;9.110;2023-05-10T08:06:57;16.40;99.90
28823;DHT22;15961;54.678;9.110;2023-05-10T08:09:22;16.50;99.90
28823;DHT22;15961;54.678;9.110;2023-05-10T08:11:49;16.60;99.90
28823;DHT22;15961;54.678;9.110;2023-05-10T08:14:15;16.60;99.90
28823;DHT22;15961;54.678;9.110;2023-05-10T08:16:41;16.70;99.90
28823;DHT22;15961;54.678;9.110;2023-05-10T08:19:06;16.80;99.90
28823;DHT22;15961;54.678;9.110;2023-05-10T08:21:32;16.90;99.90
28823;DHT22;15961;54.678;9.110;2023-05-10T08:23:57;16.80;99.90
28823;DHT22;15961;54.678;9.110;2023-05-10T08:26:23;16.70;99.90
28823;DHT22;15961;54.678;9.110;2023-05-10T08:28:48;16.80;99.90
28823;DHT22;15961;54.678;9.110;2023-05-10T08:31:14;16.80;99.90
28823;DHT22;15961;54.678;9.110;2023-05-10T08:33:40;16.70;99.90
28823;DHT22;15961;54.678;9.110;2023-05-10T08:36:06;16.70;99.90
28823;DHT22;15961;54.678;9.110;2023-05-10T08:38:31;16.60;99.90
28823;DHT22;15961;54.678;9.110;2023-05-10T08:40:57;16.50;99.90
28823;DHT22;15961;54.678;9.110;2023-05-10T08:43:26;16.60;99.90
28823;DHT22;15961;54.678;9.110;2023-05-10T08:45:54;16.70;99.90
28823;DHT22;15961;54.678;9.110;2023-05-10T08:48:22;16.90;99.90
28823;DHT22;15961;54.678;9.110;2023-05-10T08:50:48;17.00;99.90
28823;DHT22;15961;54.678;9.110;2023-05-10T08:53:19;17.00;99.90
28823;DHT22;15961;54.678;9.110;2023-05-10T08:55:45;17.10;99.90
28823;DHT22;15961;54.678;9.110;2023-05-10T08:58:11;17.30;99.90
28823;DHT22;15961;54.678;9.110;2023-05-10T09:00:36;17.20;99.90
28823;DHT22;15961;54.678;9.110;2023-05-10T09:03:04;17.10;99.90
28823;DHT22;15961;54.678;9.110;2023-05-10T09:05:30;17.20;99.90
28823;DHT22;15961;54.678;9.110;2023-05-10T09:07:55;17.30;99.90
28823;DHT22;15961;54.678;9.110;2023-05-10T09:10:21;17.40;99.90
28823;DHT22;15961;54.678;9.110;2023-05-10T09:12:48;17.80;99.90
28823;DHT22;15961;54.678;9.110;2023-05-10T09:15:17;17.60;99.90
28823;DHT22;15961;54.678;9.110;2023-05-10T09:17:44;17.70;99.90
28823;DHT22;15961;54.678;9.110;2023-05-10T09:20:10;17.90;99.90
28823;DHT22;15961;54.678;9.110;2023-05-10T09:22:36;17.80;99.90
28823;DHT22;15961;54.678;9.110;2023-05-10T09:27:35;17.90;99.90
28823;DHT22;15961;54.678;9.110;2023-05-10T09:30:02;17.90;99.90
28823;DHT22;15961;54.678;9.110;2023-05-10T09:32:47;17.90;99.90
28823;DHT22;15961;54.678;9.110;2023-05-10T09:35:15;18.10;99.90
28823;DHT22;15961;54.678;9.110;2023-05-10T09:37:45;18.00;99.90
28823;DHT22;15961;54.678;9.110;2023-05-10T09:40:18;18.00;99.90
28823;DHT22;15961;54.678;9.110;2023-05-10T09:45:21;18.00;99.90
28823;DHT22;15961;54.678;9.110;2023-05-10T09:47:46;18.00;99.90
28823;DHT22;15961;54.678;9.110;2023-05-10T09:50:12;18.00;99.90
28823;DHT22;15961;54.678;9.110;2023-05-10T09:52:59;17.90;99.90
28823;DHT22;15961;54.678;9.110;2023-05-10T09:58:01;17.60;99.90
28823;DHT22;15961;54.678;9.110;2023-05-10T10:00:28;17.40;99.90
28823;DHT22;15961;54.678;9.110;2023-05-10T10:03:00;17.10;99.90
28823;DHT22;15961;54.678;9.110;2023-05-10T10:05:32;17.10;99.90
28823;DHT22;15961;54.678;9.110;2023-05-10T10:07:58;17.00;99.90
28823;DHT22;15961;54.678;9.110;2023-05-10T10:10:25;16.80;99.90
28823;DHT22;15961;54.678;9.110;2023-05-10T10:12:51;16.70;99.90
28823;DHT22;15961;54.678;9.110;2023-05-10T10:15:17;16.70;99.90
28823;DHT22;15961;54.678;9.110;2023-05-10T10:17:43;16.80;99.90
28823;DHT22;15961;54.678;9.110;2023-05-10T10:20:09;16.90;99.90
28823;DHT22;15961;54.678;9.110;2023-05-10T10:22:35;16.90;99.90
28823;DHT22;15961;54.678;9.110;2023-05-10T10:25:02;16.80;99.90
28823;DHT22;15961;54.678;9.110;2023-05-10T10:33:40;16.90;99.90
28823;DHT22;15961;54.678;9.110;2023-05-10T10:36:12;16.80;99.90
28823;DHT22;15961;54.678;9.110;2023-05-10T10:41:36;16.60;99.90
28823;DHT22;15961;54.678;9.110;2023-05-10T10:44:33;16.70;99.90
28823;DHT22;15961;54.678;9.110;2023-05-10T10:47:32;16.50;99.90
28823;DHT22;15961;54.678;9.110;2023-05-10T10:52:31;16.10;99.90
28823;DHT22;15961;54.678;9.110;2023-05-10T10:55:01;16.10;99.90
28823;DHT22;15961;54.678;9.110;2023-05-10T10:57:27;16.20;99.90
28823;DHT22;15961;54.678;9.110;2023-05-10T11:02:44;15.90;99.90
28823;DHT22;15961;54.678;9.110;2023-05-10T11:05:34;15.90;99.90
28823;DHT22;15961;54.678;9.110;2023-05-10T11:08:10;16.00;99.90
28823;DHT22;15961;54.678;9.110;2023-05-10T11:10:36;16.10;99.90
28823;DHT22;15961;54.678;9.110;2023-05-10T11:13:04;16.10;99.90
28823;DHT22;15961;54.678;9.110;2023-05-10T11:15:38;16.20;99.90
28823;DHT22;15961;54.678;9.110;2023-05-10T11:18:17;16.30;99.90
28823;DHT22;15961;54.678;9.110;2023-05-10T11:20:44;16.20;99.90
28823;DHT22;15961;54.678;9.110;2023-05-10T11:23:13;15.90;99.90
28823;DHT22;15961;54.678;9.110;2023-05-10T11:25:42;16.00;99.90
28823;DHT22;15961;54.678;9.110;2023-05-10T11:28:08;16.00;99.90
28823;DHT22;15961;54.678;9.110;2023-05-10T11:30:34;15.90;99.90
28823;DHT22;15961;54.678;9.110;2023-05-10T11:32:59;15.70;99.90
28823;DHT22;15961;54.678;9.110;2023-05-10T11:35:27;15.70;99.90
28823;DHT22;15961;54.678;9.110;2023-05-10T11:37:53;15.80;99.90
28823;DHT22;15961;54.678;9.110;2023-05-10T11:40:21;15.60;99.90
28823;DHT22;15961;54.678;9.110;2023-05-10T11:42:46;15.60;99.90
28823;DHT22;15961;54.678;9.110;2023-05-10T11:45:12;15.50;99.90
28823;DHT22;15961;54.678;9.110;2023-05-10T11:47:38;15.50;99.90
28823;DHT22;15961;54.678;9.110;2023-05-10T11:50:05;15.50;99.90
28823;DHT22;15961;54.678;9.110;2023-05-10T11:52:36;15.50;99.90
28823;DHT22;15961;54.678;9.110;2023-05-10T11:55:02;15.40;99.90
28823;DHT22;15961;54.678;9.110;2023-05-10T11:57:28;15.20;99.90
28823;DHT22;15961;54.678;9.110;2023-05-10T11:59:54;15.30;99.90
28823;DHT22;15961;54.678;9.110;2023-05-10T12:02:20;15.20;99.90
28823;DHT22;15961;54.678;9.110;2023-05-10T12:04:46;15.30;99.90
28823;DHT22;15961;54.678;9.110;2023-05-10T12:07:12;15.20;99.90
28823;DHT22;15961;54.678;9.110;2023-05-10T12:10:02;15.10;99.90
28823;DHT22;15961;54.678;9.110;2023-05-10T12:12:27;15.10;99.90
28823;DHT22;15961;54.678;9.110;2023-05-10T12:15:00;15.20;99.90
28823;DHT22;15961;54.678;9.110;2023-05-10T12:17:29;15.10;99.90
28823;DHT22;15961;54.678;9.110;2023-05-10T12:19:59;15.10;99.90
28823;DHT22;15961;54.678;9.110;2023-05-10T12:22:37;15.10;99.90
28823;DHT22;15961;54.678;9.110;2023-05-10T12:25:03;15.10;99.90
28823;DHT22;15961;54.678;9.110;2023-05-10T12:27:32;14.90;99.90
28823;DHT22;15961;54.678;9.110;2023-05-10T12:29:59;15.00;99.90
28823;DHT22;15961;54.678;9.110;2023-05-10T12:32:40;14.90;99.90
28823;DHT22;15961;54.678;9.110;2023-05-10T12:35:07;14.90;99.90
28823;DHT22;15961;54.678;9.110;2023-05-10T12:37:32;14.90;99.90
28823;DHT22;15961;54.678;9.110;2023-05-10T12:40:06;14.80;99.90
28823;DHT22;15961;54.678;9.110;2023-05-10T12:42:32;14.70;99.90
28823;DHT22;15961;54.678;9.110;2023-05-10T12:44:57;14.80;99.90
28823;DHT22;15961;54.678;9.110;2023-05-10T12:47:23;15.00;99.90
28823;DHT22;15961;54.678;9.110;2023-05-10T12:49:48;15.00;99.90
28823;DHT22;15961;54.678;9.110;2023-05-10T12:52:14;15.00;99.90
28823;DHT22;15961;54.678;9.110;2023-05-10T12:54:40;14.80;99.90
28823;DHT22;15961;54.678;9.110;2023-05-10T12:57:05;14.60;99.90
28823;DHT22;15961;54.678;9.110;2023-05-10T12:59:31;14.50;99.90
28823;DHT22;15961;54.678;9.110;2023-05-10T13:01:57;14.40;99.90
28823;DHT22;15961;54.678;9.110;2023-05-10T13:04:23;14.40;99.90
28823;DHT22;15961;54.678;9.110;2023-05-10T13:06:48;14.40;99.90
28823;DHT22;15961;54.678;9.110;2023-05-10T13:09:14;14.50;99.90
28823;DHT22;15961;54.678;9.110;2023-05-10T13:11:40;14.60;99.90
28823;DHT22;15961;54.678;9.110;2023-05-10T13:14:06;14.80;99.90
28823;DHT22;15961;54.678;9.110;2023-05-10T13:16:31;14.80;99.90
28823;DHT22;15961;54.678;9.110;2023-05-10T13:18:57;14.90;99.90
28823;DHT22;15961;54.678;9.110;2023-05-10T13:21:22;15.00;99.90
28823;DHT22;15961;54.678;9.110;2023-05-10T13:23:49;15.30;99.90
28823;DHT22;15961;54.678;9.110;2023-05-10T13:26:15;15.20;99.90
28823;DHT22;15961;54.678;9.110;2023-05-10T13:28:40;15.40;99.90
28823;DHT22;15961;54.678;9.110;2023-05-10T13:31:06;15.60;99.90
28823;DHT22;15961;54.678;9.110;2023-05-10T13:33:32;15.60;99.90
28823;DHT22;15961;54.678;9.110;2023-05-10T13:35:57;15.70;99.90
28823;DHT22;15961;54.678;9.110;2023-05-10T13:38:23;15.70;99.90
28823;DHT22;15961;54.678;9.110;2023-05-10T13:40:48;15.70;99.90
28823;DHT22;15961;54.678;9.110;2023-05-10T13:43:18;15.90;99.90
28823;DHT22;15961;54.678;9.110;2023-05-10T13:45:43;16.10;99.90
28823;DHT22;15961;54.678;9.110;2023-05-10T13:48:09;16.20;99.90
28823;DHT22;15961;54.678;9.110;2023-05-10T13:50:34;16.40;99.90
28823;DHT22;15961;54.678;9.110;2023-05-10T13:53:00;16.20;99.90
28823;DHT22;15961;54.678;9.110;2023-05-10T13:55:25;16.00;99.90
28823;DHT22;15961;54.678;9.110;2023-05-10T13:57:51;16.00;99.90
28823;DHT22;15961;54.678;9.110;2023-05-10T14:00:17;16.00;99.90
28823;DHT22;15961;54.678;9.110;2023-05-10T14:02:43;16.00;99.90
28823;DHT22;15961;54.678;9.110;2023-05-10T14:05:10;16.10;99.90
28823;DHT22;15961;54.678;9.110;2023-05-10T14:07:35;16.20;99.90
28823;DHT22;15961;54.678;9.110;2023-05-10T14:10:01;16.20;99.90
28823;DHT22;15961;54.678;9.110;2023-05-10T14:12:27;16.10;99.90
28823;DHT22;15961;54.678;9.110;2023-05-10T14:14:52;16.10;99.90
28823;DHT22;15961;54.678;9.110;2023-05-10T14:17:18;16.10;99.90
28823;DHT22;15961;54.678;9.110;2023-05-10T14:19:44;15.90;99.90
28823;DHT22;15961;54.678;9.110;2023-05-10T14:22:10;15.70;99.90
28823;DHT22;15961;54.678;9.110;2023-05-10T14:24:35;15.60;99.90
28823;DHT22;15961;54.678;9.110;2023-05-10T14:27:01;15.60;99.90
28823;DHT22;15961;54.678;9.110;2023-05-10T14:29:27;15.60;99.90
28823;DHT22;15961;54.678;9.110;2023-05-10T14:31:52;15.50;99.90
28823;DHT22;15961;54.678;9.110;2023-05-10T14:34:18;15.60;99.90
28823;DHT22;15961;54.678;9.110;2023-05-10T14:36:43;15.60;99.90
28823;DHT22;15961;54.678;9.110;2023-05-10T14:39:09;15.50;99.90
28823;DHT22;15961;54.678;9.110;2023-05-10T14:41:35;15.40;99.90
28823;DHT22;15961;54.678;9.110;2023-05-10T14:44:01;15.20;99.90
28823;DHT22;15961;54.678;9.110;2023-05-10T14:46:28;15.10;99.90
28823;DHT22;15961;54.678;9.110;2023-05-10T14:48:55;15.10;99.90
28823;DHT22;15961;54.678;9.110;2023-05-10T14:51:20;15.00;99.90
28823;DHT22;15961;54.678;9.110;2023-05-10T14:53:47;15.00;99.90
28823;DHT22;15961;54.678;9.110;2023-05-10T14:56:13;14.90;99.90
28823;DHT22;15961;54.678;9.110;2023-05-10T14:58:39;14.90;99.90
28823;DHT22;15961;54.678;9.110;2023-05-10T15:01:04;14.90;99.90
28823;DHT22;15961;54.678;9.110;2023-05-10T15:03:30;14.90;99.90
28823;DHT22;15961;54.678;9.110;2023-05-10T15:05:56;14.90;99.90
28823;DHT22;15961;54.678;9.110;2023-05-10T15:08:23;14.80;99.90
28823;DHT22;15961;54.678;9.110;2023-05-10T15:10:50;14.90;99.90
28823;DHT22;15961;54.678;9.110;2023-05-10T15:13:16;14.80;99.90
28823;DHT22;15961;54.678;9.110;2023-05-10T15:15:41;14.80;99.90
28823;DHT22;15961;54.678;9.110;2023-05-10T15:18:08;14.60;99.90
28823;DHT22;15961;54.678;9.110;2023-05-10T15:20:33;14.40;99.90
28823;DHT22;15961;54.678;9.110;2023-05-10T15:22:59;14.30;99.90
28823;DHT22;15961;54.678;9.110;2023-05-10T15:25:24;14.10;99.90
28823;DHT22;15961;54.678;9.110;2023-05-10T15:27:50;14.00;99.90
28823;DHT22;15961;54.678;9.110;2023-05-10T15:30:15;14.00;99.90
28823;DHT22;15961;54.678;9.110;2023-05-10T15:32:41;13.80;99.90
28823;DHT22;15961;54.678;9.110;2023-05-10T15:35:08;13.80;99.90
28823;DHT22;15961;54.678;9.110;2023-05-10T15:37:34;13.70;99.90
28823;DHT22;15961;54.678;9.110;2023-05-10T15:40:00;13.80;99.90
28823;DHT22;15961;54.678;9.110;2023-05-10T15:42:30;13.90;99.90
28823;DHT22;15961;54.678;9.110;2023-05-10T15:44:57;13.80;99.90
28823;DHT22;15961;54.678;9.110;2023-05-10T15:47:22;13.90;99.90
28823;DHT22;15961;54.678;9.110;2023-05-10T15:49:48;14.00;99.90
28823;DHT22;15961;54.678;9.110;2023-05-10T15:52:13;14.10;99.90
28823;DHT22;15961;54.678;9.110;2023-05-10T15:54:39;14.20;99.90
28823;DHT22;15961;54.678;9.110;2023-05-10T15:57:05;14.30;99.90
28823;DHT22;15961;54.678;9.110;2023-05-10T15:59:31;14.20;99.90
28823;DHT22;15961;54.678;9.110;2023-05-10T16:01:57;14.10;99.90
28823;DHT22;15961;54.678;9.110;2023-05-10T16:04:23;14.10;99.90
28823;DHT22;15961;54.678;9.110;2023-05-10T16:06:48;14.10;99.90